Main page
METAR-TAF:

METAR-TAF

Airports :

Skopje "Alexander the Great" Airport

Skopje, Macedonia

latitude: 41-58N, longitude: 021-39E, elevation: 238 m

Current weather observation

The report was made 13 minutes ago, at 01:30 UTC
Wind 4 kt from the North/Northeast
Temperature 5°C
Humidity 52%
Pressure 1029 hPa
Visibility 10 km or more
no clouds below 1500 m and no cumulonimbus

METAR: LWSK 070130Z 02004KT CAVOK 05/M04 Q1029 NOSIG

Time: 03:43 (01:43 UTC)

Forecast

The report was made 2 hours and 13 minutes ago, at 23:30 UTC
Forecast valid from 07 at 00 UTC to 07 at 24 UTC
Wind 8 kt from the Northeast
Visibility 10 km or more
no clouds below 1500 m and no cumulonimbus

TAF: LWSK 062330Z 0700/0724 05008KT CAVOK

Weather observations and forecasts of more than 4000 airports (METAR and TAF reports).

The available stations are represented by yellow and red dots on the map.

Hover mouse over dot to see the name of the station.

Then click to see weather observations and forecasts.

To change the map : click on the green buttons with a black cross to zoom in, on the green button with a dash to zoom out, or on the green arrows for adjacent maps.


METAR-TAF: